sensor_id;sensor_type;location;lat;lon;timestamp;P1;durP1;ratioP1;P2;durP2;ratioP2
72273;SDS011;60208;48.692;8.948;2023-05-07T00:02:25;8.77;;;4.40;;
72273;SDS011;60208;48.692;8.948;2023-05-07T00:07:49;4.68;;;2.75;;
72273;SDS011;60208;48.692;8.948;2023-05-07T00:10:41;3.80;;;2.60;;
72273;SDS011;60208;48.692;8.948;2023-05-07T00:13:20;5.75;;;2.53;;
72273;SDS011;60208;48.692;8.948;2023-05-07T00:19:31;3.10;;;2.80;;
72273;SDS011;60208;48.692;8.948;2023-05-07T00:24:54;4.97;;;3.17;;
72273;SDS011;60208;48.692;8.948;2023-05-07T00:27:29;3.10;;;2.70;;
72273;SDS011;60208;48.692;8.948;2023-05-07T00:30:05;4.15;;;2.60;;
72273;SDS011;60208;48.692;8.948;2023-05-07T00:35:33;5.43;;;2.72;;
72273;SDS011;60208;48.692;8.948;2023-05-07T00:38:21;5.05;;;2.80;;
72273;SDS011;60208;48.692;8.948;2023-05-07T00:41:29;3.15;;;2.70;;
72273;SDS011;60208;48.692;8.948;2023-05-07T00:44:28;4.45;;;3.45;;
72273;SDS011;60208;48.692;8.948;2023-05-07T00:47:30;4.43;;;2.95;;
72273;SDS011;60208;48.692;8.948;2023-05-07T00:52:44;3.40;;;3.10;;
72273;SDS011;60208;48.692;8.948;2023-05-07T01:01:38;3.60;;;3.30;;
72273;SDS011;60208;48.692;8.948;2023-05-07T01:04:29;7.03;;;3.65;;
72273;SDS011;60208;48.692;8.948;2023-05-07T01:07:24;5.15;;;3.33;;
72273;SDS011;60208;48.692;8.948;2023-05-07T01:10:19;4.47;;;3.00;;
72273;SDS011;60208;48.692;8.948;2023-05-07T01:13:05;3.35;;;3.00;;
72273;SDS011;60208;48.692;8.948;2023-05-07T01:18:58;4.32;;;3.00;;
72273;SDS011;60208;48.692;8.948;2023-05-07T01:24:44;4.93;;;3.05;;
72273;SDS011;60208;48.692;8.948;2023-05-07T01:27:44;5.88;;;3.22;;
72273;SDS011;60208;48.692;8.948;2023-05-07T01:30:14;4.10;;;2.97;;
72273;SDS011;60208;48.692;8.948;2023-05-07T01:33:09;5.78;;;3.30;;
72273;SDS011;60208;48.692;8.948;2023-05-07T01:35:56;8.95;;;3.33;;
72273;SDS011;60208;48.692;8.948;2023-05-07T01:40:59;6.30;;;2.90;;
72273;SDS011;60208;48.692;8.948;2023-05-07T01:43:33;4.85;;;2.90;;
72273;SDS011;60208;48.692;8.948;2023-05-07T01:48:49;3.55;;;2.53;;
72273;SDS011;60208;48.692;8.948;2023-05-07T01:51:45;4.38;;;3.13;;
72273;SDS011;60208;48.692;8.948;2023-05-07T01:54:46;6.15;;;3.70;;
72273;SDS011;60208;48.692;8.948;2023-05-07T01:58:11;5.07;;;2.50;;
72273;SDS011;60208;48.692;8.948;2023-05-07T02:00:49;4.15;;;2.90;;
72273;SDS011;60208;48.692;8.948;2023-05-07T02:03:19;3.53;;;2.90;;
72273;SDS011;60208;48.692;8.948;2023-05-07T02:05:57;3.67;;;2.65;;
72273;SDS011;60208;48.692;8.948;2023-05-07T02:15:04;3.80;;;3.00;;
72273;SDS011;60208;48.692;8.948;2023-05-07T02:18:04;2.85;;;2.55;;
72273;SDS011;60208;48.692;8.948;2023-05-07T02:20:42;2.90;;;2.53;;
72273;SDS011;60208;48.692;8.948;2023-05-07T02:23:25;3.28;;;2.60;;
72273;SDS011;60208;48.692;8.948;2023-05-07T02:26:04;5.68;;;2.72;;
72273;SDS011;60208;48.692;8.948;2023-05-07T02:28:59;4.53;;;2.70;;
72273;SDS011;60208;48.692;8.948;2023-05-07T02:31:33;4.43;;;3.00;;
72273;SDS011;60208;48.692;8.948;2023-05-07T02:34:04;3.10;;;2.60;;
72273;SDS011;60208;48.692;8.948;2023-05-07T02:36:31;4.13;;;2.75;;
72273;SDS011;60208;48.692;8.948;2023-05-07T02:39:27;5.40;;;2.60;;
72273;SDS011;60208;48.692;8.948;2023-05-07T02:42:03;4.32;;;2.90;;
72273;SDS011;60208;48.692;8.948;2023-05-07T02:44:29;4.95;;;3.00;;
72273;SDS011;60208;48.692;8.948;2023-05-07T02:46:56;3.50;;;2.58;;
72273;SDS011;60208;48.692;8.948;2023-05-07T02:49:21;3.67;;;2.90;;
72273;SDS011;60208;48.692;8.948;2023-05-07T02:51:58;3.53;;;2.60;;
72273;SDS011;60208;48.692;8.948;2023-05-07T02:57:56;3.80;;;2.53;;
72273;SDS011;60208;48.692;8.948;2023-05-07T03:00:22;3.33;;;2.63;;
72273;SDS011;60208;48.692;8.948;2023-05-07T03:02:47;3.15;;;2.67;;
72273;SDS011;60208;48.692;8.948;2023-05-07T03:05:13;3.85;;;2.72;;
72273;SDS011;60208;48.692;8.948;2023-05-07T03:08:06;4.05;;;2.80;;
72273;SDS011;60208;48.692;8.948;2023-05-07T03:10:58;5.15;;;2.88;;
72273;SDS011;60208;48.692;8.948;2023-05-07T03:19:21;5.05;;;3.17;;
72273;SDS011;60208;48.692;8.948;2023-05-07T03:22:14;4.80;;;3.40;;
72273;SDS011;60208;48.692;8.948;2023-05-07T03:24:49;5.63;;;3.97;;
72273;SDS011;60208;48.692;8.948;2023-05-07T03:27:28;6.60;;;3.53;;
72273;SDS011;60208;48.692;8.948;2023-05-07T03:33:24;4.18;;;3.55;;
72273;SDS011;60208;48.692;8.948;2023-05-07T03:35:57;5.03;;;3.22;;
72273;SDS011;60208;48.692;8.948;2023-05-07T03:38:35;9.02;;;3.60;;
72273;SDS011;60208;48.692;8.948;2023-05-07T03:41:11;5.10;;;3.40;;
72273;SDS011;60208;48.692;8.948;2023-05-07T03:43:54;5.15;;;3.50;;
72273;SDS011;60208;48.692;8.948;2023-05-07T03:46:39;7.20;;;3.30;;
72273;SDS011;60208;48.692;8.948;2023-05-07T03:49:42;5.57;;;3.30;;
72273;SDS011;60208;48.692;8.948;2023-05-07T03:52:35;6.93;;;3.55;;
72273;SDS011;60208;48.692;8.948;2023-05-07T03:55:13;3.63;;;3.10;;
72273;SDS011;60208;48.692;8.948;2023-05-07T03:57:41;4.15;;;3.42;;
72273;SDS011;60208;48.692;8.948;2023-05-07T04:00:19;4.28;;;3.38;;
72273;SDS011;60208;48.692;8.948;2023-05-07T04:03:27;3.78;;;3.00;;
72273;SDS011;60208;48.692;8.948;2023-05-07T04:05:59;4.83;;;2.97;;
72273;SDS011;60208;48.692;8.948;2023-05-07T04:09:04;3.72;;;2.83;;
72273;SDS011;60208;48.692;8.948;2023-05-07T04:11:45;4.80;;;3.10;;
72273;SDS011;60208;48.692;8.948;2023-05-07T04:14:48;4.72;;;3.10;;
72273;SDS011;60208;48.692;8.948;2023-05-07T04:20:15;4.00;;;3.13;;
72273;SDS011;60208;48.692;8.948;2023-05-07T04:22:51;5.22;;;3.22;;
72273;SDS011;60208;48.692;8.948;2023-05-07T04:25:34;6.25;;;3.25;;
72273;SDS011;60208;48.692;8.948;2023-05-07T04:28:28;4.70;;;2.78;;
72273;SDS011;60208;48.692;8.948;2023-05-07T04:31:01;5.28;;;2.90;;
72273;SDS011;60208;48.692;8.948;2023-05-07T04:33:45;4.88;;;3.25;;
72273;SDS011;60208;48.692;8.948;2023-05-07T04:36:23;4.30;;;3.17;;
72273;SDS011;60208;48.692;8.948;2023-05-07T04:39:09;3.30;;;3.00;;
72273;SDS011;60208;48.692;8.948;2023-05-07T04:41:54;3.20;;;2.90;;
72273;SDS011;60208;48.692;8.948;2023-05-07T04:44:32;6.45;;;3.58;;
72273;SDS011;60208;48.692;8.948;2023-05-07T04:47:04;6.47;;;3.33;;
72273;SDS011;60208;48.692;8.948;2023-05-07T04:49:30;4.90;;;3.60;;
72273;SDS011;60208;48.692;8.948;2023-05-07T04:51:55;5.15;;;3.35;;
72273;SDS011;60208;48.692;8.948;2023-05-07T04:54:20;6.20;;;3.40;;
72273;SDS011;60208;48.692;8.948;2023-05-07T04:56:46;5.07;;;3.33;;
72273;SDS011;60208;48.692;8.948;2023-05-07T04:59:14;4.07;;;3.35;;
72273;SDS011;60208;48.692;8.948;2023-05-07T05:04:24;4.47;;;3.42;;
72273;SDS011;60208;48.692;8.948;2023-05-07T05:07:11;7.45;;;5.70;;
72273;SDS011;60208;48.692;8.948;2023-05-07T05:09:59;7.07;;;5.00;;
72273;SDS011;60208;48.692;8.948;2023-05-07T05:12:29;8.23;;;3.80;;
72273;SDS011;60208;48.692;8.948;2023-05-07T05:14:57;7.00;;;3.83;;
72273;SDS011;60208;48.692;8.948;2023-05-07T05:17:22;5.43;;;3.53;;
72273;SDS011;60208;48.692;8.948;2023-05-07T05:20:08;4.22;;;3.83;;
72273;SDS011;60208;48.692;8.948;2023-05-07T05:22:37;4.47;;;3.90;;
72273;SDS011;60208;48.692;8.948;2023-05-07T05:25:05;6.05;;;4.03;;
72273;SDS011;60208;48.692;8.948;2023-05-07T05:27:31;4.63;;;4.13;;
72273;SDS011;60208;48.692;8.948;2023-05-07T05:30:20;5.90;;;4.18;;
72273;SDS011;60208;48.692;8.948;2023-05-07T05:32:48;6.40;;;4.30;;
72273;SDS011;60208;48.692;8.948;2023-05-07T05:35:19;7.32;;;4.47;;
72273;SDS011;60208;48.692;8.948;2023-05-07T05:37:45;4.97;;;3.95;;
72273;SDS011;60208;48.692;8.948;2023-05-07T05:40:15;4.13;;;3.65;;
72273;SDS011;60208;48.692;8.948;2023-05-07T05:42:40;3.97;;;3.35;;
72273;SDS011;60208;48.692;8.948;2023-05-07T05:45:11;3.53;;;3.22;;
72273;SDS011;60208;48.692;8.948;2023-05-07T05:47:37;4.53;;;3.15;;
72273;SDS011;60208;48.692;8.948;2023-05-07T05:50:03;4.07;;;3.30;;
72273;SDS011;60208;48.692;8.948;2023-05-07T05:52:32;5.93;;;3.42;;
72273;SDS011;60208;48.692;8.948;2023-05-07T05:58:12;3.40;;;3.10;;
72273;SDS011;60208;48.692;8.948;2023-05-07T06:00:40;5.18;;;3.17;;
72273;SDS011;60208;48.692;8.948;2023-05-07T06:03:13;3.60;;;3.30;;
72273;SDS011;60208;48.692;8.948;2023-05-07T06:06:04;6.22;;;3.65;;
72273;SDS011;60208;48.692;8.948;2023-05-07T06:08:55;5.57;;;3.50;;
72273;SDS011;60208;48.692;8.948;2023-05-07T06:12:09;4.07;;;3.22;;
72273;SDS011;60208;48.692;8.948;2023-05-07T06:14:36;8.20;;;4.15;;
72273;SDS011;60208;48.692;8.948;2023-05-07T06:17:40;4.78;;;3.70;;
72273;SDS011;60208;48.692;8.948;2023-05-07T06:20:20;4.22;;;3.50;;
72273;SDS011;60208;48.692;8.948;2023-05-07T06:23:03;6.32;;;3.40;;
72273;SDS011;60208;48.692;8.948;2023-05-07T06:25:36;5.70;;;3.53;;
72273;SDS011;60208;48.692;8.948;2023-05-07T06:28:04;4.10;;;3.70;;
72273;SDS011;60208;48.692;8.948;2023-05-07T06:30:39;4.75;;;3.58;;
72273;SDS011;60208;48.692;8.948;2023-05-07T06:33:07;5.47;;;3.40;;
72273;SDS011;60208;48.692;8.948;2023-05-07T06:35:33;8.07;;;3.58;;
72273;SDS011;60208;48.692;8.948;2023-05-07T06:38:02;4.55;;;3.60;;
72273;SDS011;60208;48.692;8.948;2023-05-07T06:40:32;5.65;;;3.67;;
72273;SDS011;60208;48.692;8.948;2023-05-07T06:42:57;5.43;;;3.50;;
72273;SDS011;60208;48.692;8.948;2023-05-07T06:45:23;4.38;;;3.65;;
72273;SDS011;60208;48.692;8.948;2023-05-07T06:47:59;4.63;;;3.50;;
72273;SDS011;60208;48.692;8.948;2023-05-07T06:50:24;4.47;;;3.10;;
72273;SDS011;60208;48.692;8.948;2023-05-07T06:52:50;5.38;;;3.60;;
72273;SDS011;60208;48.692;8.948;2023-05-07T06:55:16;5.68;;;3.50;;
72273;SDS011;60208;48.692;8.948;2023-05-07T06:57:41;4.00;;;3.10;;
72273;SDS011;60208;48.692;8.948;2023-05-07T07:00:06;3.92;;;3.50;;
72273;SDS011;60208;48.692;8.948;2023-05-07T07:02:34;6.28;;;3.40;;
72273;SDS011;60208;48.692;8.948;2023-05-07T07:05:02;3.58;;;3.22;;
72273;SDS011;60208;48.692;8.948;2023-05-07T07:07:30;4.68;;;3.13;;
72273;SDS011;60208;48.692;8.948;2023-05-07T07:09:58;4.93;;;3.10;;
72273;SDS011;60208;48.692;8.948;2023-05-07T07:12:25;6.22;;;3.50;;
72273;SDS011;60208;48.692;8.948;2023-05-07T07:14:55;4.75;;;3.28;;
72273;SDS011;60208;48.692;8.948;2023-05-07T07:17:24;5.35;;;3.40;;
72273;SDS011;60208;48.692;8.948;2023-05-07T07:19:52;3.65;;;3.25;;
72273;SDS011;60208;48.692;8.948;2023-05-07T07:22:28;2.78;;;2.58;;
72273;SDS011;60208;48.692;8.948;2023-05-07T07:24:56;3.80;;;2.80;;
72273;SDS011;60208;48.692;8.948;2023-05-07T07:27:47;3.40;;;2.90;;
72273;SDS011;60208;48.692;8.948;2023-05-07T07:30:24;3.00;;;2.38;;
72273;SDS011;60208;48.692;8.948;2023-05-07T07:33:37;7.60;;;2.95;;
72273;SDS011;60208;48.692;8.948;2023-05-07T07:36:22;3.92;;;2.83;;
72273;SDS011;60208;48.692;8.948;2023-05-07T07:39:08;3.08;;;2.60;;
72273;SDS011;60208;48.692;8.948;2023-05-07T07:42:23;4.20;;;2.40;;
72273;SDS011;60208;48.692;8.948;2023-05-07T07:48:21;3.40;;;2.63;;
72273;SDS011;60208;48.692;8.948;2023-05-07T07:50:51;4.63;;;2.42;;
72273;SDS011;60208;48.692;8.948;2023-05-07T07:53:57;3.50;;;2.40;;
72273;SDS011;60208;48.692;8.948;2023-05-07T07:56:25;2.83;;;2.28;;
72273;SDS011;60208;48.692;8.948;2023-05-07T07:58:55;3.05;;;2.53;;
72273;SDS011;60208;48.692;8.948;2023-05-07T08:01:31;3.88;;;2.70;;
72273;SDS011;60208;48.692;8.948;2023-05-07T08:03:59;2.67;;;2.47;;
72273;SDS011;60208;48.692;8.948;2023-05-07T08:06:48;4.13;;;2.30;;
72273;SDS011;60208;48.692;8.948;2023-05-07T08:09:54;3.83;;;2.50;;
72273;SDS011;60208;48.692;8.948;2023-05-07T08:12:42;2.85;;;2.55;;
72273;SDS011;60208;48.692;8.948;2023-05-07T08:15:08;3.70;;;2.60;;
72273;SDS011;60208;48.692;8.948;2023-05-07T08:17:44;3.47;;;2.60;;
72273;SDS011;60208;48.692;8.948;2023-05-07T08:20:09;4.15;;;2.85;;
72273;SDS011;60208;48.692;8.948;2023-05-07T08:22:55;3.03;;;2.28;;
72273;SDS011;60208;48.692;8.948;2023-05-07T08:25:23;3.38;;;2.50;;
72273;SDS011;60208;48.692;8.948;2023-05-07T08:27:51;2.38;;;2.05;;
72273;SDS011;60208;48.692;8.948;2023-05-07T08:30:16;2.72;;;1.98;;
72273;SDS011;60208;48.692;8.948;2023-05-07T08:32:42;3.42;;;2.17;;
72273;SDS011;60208;48.692;8.948;2023-05-07T08:35:07;3.03;;;1.90;;
72273;SDS011;60208;48.692;8.948;2023-05-07T08:37:37;2.50;;;1.73;;
72273;SDS011;60208;48.692;8.948;2023-05-07T08:40:24;1.60;;;1.50;;
72273;SDS011;60208;48.692;8.948;2023-05-07T08:42:52;1.95;;;1.70;;
72273;SDS011;60208;48.692;8.948;2023-05-07T08:45:22;3.42;;;2.20;;
72273;SDS011;60208;48.692;8.948;2023-05-07T08:47:50;3.28;;;2.40;;
72273;SDS011;60208;48.692;8.948;2023-05-07T08:50:17;2.22;;;1.75;;
72273;SDS011;60208;48.692;8.948;2023-05-07T08:52:46;2.28;;;1.65;;
72273;SDS011;60208;48.692;8.948;2023-05-07T08:55:12;1.83;;;1.73;;
72273;SDS011;60208;48.692;8.948;2023-05-07T08:57:58;2.35;;;1.90;;
72273;SDS011;60208;48.692;8.948;2023-05-07T09:03:25;2.17;;;1.70;;
72273;SDS011;60208;48.692;8.948;2023-05-07T09:08:53;2.78;;;2.08;;
72273;SDS011;60208;48.692;8.948;2023-05-07T09:14:16;3.63;;;2.00;;
72273;SDS011;60208;48.692;8.948;2023-05-07T09:16:54;2.05;;;1.85;;
72273;SDS011;60208;48.692;8.948;2023-05-07T09:19:30;2.50;;;1.88;;
72273;SDS011;60208;48.692;8.948;2023-05-07T09:25:50;3.97;;;1.77;;
72273;SDS011;60208;48.692;8.948;2023-05-07T09:28:26;3.53;;;2.00;;
72273;SDS011;60208;48.692;8.948;2023-05-07T09:31:01;4.72;;;1.70;;
72273;SDS011;60208;48.692;8.948;2023-05-07T09:34:28;2.63;;;1.80;;
72273;SDS011;60208;48.692;8.948;2023-05-07T09:37:07;3.28;;;2.10;;
72273;SDS011;60208;48.692;8.948;2023-05-07T09:40:01;2.50;;;1.70;;
72273;SDS011;60208;48.692;8.948;2023-05-07T09:42:51;4.22;;;2.85;;
72273;SDS011;60208;48.692;8.948;2023-05-07T09:45:33;1.38;;;1.20;;
72273;SDS011;60208;48.692;8.948;2023-05-07T09:47:59;3.22;;;1.77;;
72273;SDS011;60208;48.692;8.948;2023-05-07T09:50:52;2.35;;;1.67;;
72273;SDS011;60208;48.692;8.948;2023-05-07T09:53:50;3.55;;;1.90;;
72273;SDS011;60208;48.692;8.948;2023-05-07T09:56:31;3.25;;;2.03;;
72273;SDS011;60208;48.692;8.948;2023-05-07T10:02:30;2.45;;;1.70;;
72273;SDS011;60208;48.692;8.948;2023-05-07T10:05:07;2.47;;;1.50;;
72273;SDS011;60208;48.692;8.948;2023-05-07T10:08:19;1.92;;;1.60;;
72273;SDS011;60208;48.692;8.948;2023-05-07T10:10:48;3.35;;;1.70;;
72273;SDS011;60208;48.692;8.948;2023-05-07T10:13:14;3.03;;;1.70;;
72273;SDS011;60208;48.692;8.948;2023-05-07T10:15:42;3.60;;;1.70;;
72273;SDS011;60208;48.692;8.948;2023-05-07T10:18:18;7.22;;;1.88;;
72273;SDS011;60208;48.692;8.948;2023-05-07T10:24:12;2.63;;;1.65;;
72273;SDS011;60208;48.692;8.948;2023-05-07T10:27:08;2.17;;;1.70;;
72273;SDS011;60208;48.692;8.948;2023-05-07T10:32:43;1.55;;;1.40;;
72273;SDS011;60208;48.692;8.948;2023-05-07T10:35:21;5.88;;;3.20;;
72273;SDS011;60208;48.692;8.948;2023-05-07T10:38:30;2.45;;;1.90;;
72273;SDS011;60208;48.692;8.948;2023-05-07T10:41:25;3.05;;;1.92;;
72273;SDS011;60208;48.692;8.948;2023-05-07T10:44:10;4.20;;;1.60;;
72273;SDS011;60208;48.692;8.948;2023-05-07T10:46:55;2.33;;;1.30;;
72273;SDS011;60208;48.692;8.948;2023-05-07T10:52:45;1.13;;;1.10;;
72273;SDS011;60208;48.692;8.948;2023-05-07T11:04:27;2.83;;;1.60;;
72273;SDS011;60208;48.692;8.948;2023-05-07T11:15:59;2.88;;;1.45;;
72273;SDS011;60208;48.692;8.948;2023-05-07T11:18:51;2.28;;;1.60;;
72273;SDS011;60208;48.692;8.948;2023-05-07T11:21:34;1.33;;;1.23;;
72273;SDS011;60208;48.692;8.948;2023-05-07T11:24:04;2.92;;;1.67;;
72273;SDS011;60208;48.692;8.948;2023-05-07T11:26:47;2.22;;;1.50;;
72273;SDS011;60208;48.692;8.948;2023-05-07T11:29:19;3.25;;;1.23;;
72273;SDS011;60208;48.692;8.948;2023-05-07T11:31:49;2.17;;;1.50;;
72273;SDS011;60208;48.692;8.948;2023-05-07T11:36:47;3.38;;;1.60;;
72273;SDS011;60208;48.692;8.948;2023-05-07T11:49:03;2.17;;;1.98;;
72273;SDS011;60208;48.692;8.948;2023-05-07T11:57:51;5.50;;;1.95;;
72273;SDS011;60208;48.692;8.948;2023-05-07T12:04:32;2.72;;;1.60;;
72273;SDS011;60208;48.692;8.948;2023-05-07T12:10:06;5.13;;;2.13;;
72273;SDS011;60208;48.692;8.948;2023-05-07T12:13:06;4.18;;;2.03;;
72273;SDS011;60208;48.692;8.948;2023-05-07T12:16:18;2.55;;;1.40;;
72273;SDS011;60208;48.692;8.948;2023-05-07T12:18:46;3.15;;;1.80;;
72273;SDS011;60208;48.692;8.948;2023-05-07T12:21:12;4.05;;;1.55;;
72273;SDS011;60208;48.692;8.948;2023-05-07T12:30:45;3.13;;;1.67;;
72273;SDS011;60208;48.692;8.948;2023-05-07T12:33:40;3.13;;;1.70;;
72273;SDS011;60208;48.692;8.948;2023-05-07T12:36:46;4.30;;;1.50;;
72273;SDS011;60208;48.692;8.948;2023-05-07T12:39:34;3.83;;;1.70;;
72273;SDS011;60208;48.692;8.948;2023-05-07T12:42:04;3.17;;;1.90;;
72273;SDS011;60208;48.692;8.948;2023-05-07T12:50:31;3.38;;;2.05;;
72273;SDS011;60208;48.692;8.948;2023-05-07T12:53:15;2.08;;;1.30;;
72273;SDS011;60208;48.692;8.948;2023-05-07T13:02:40;3.58;;;1.95;;
72273;SDS011;60208;48.692;8.948;2023-05-07T13:05:21;3.17;;;1.80;;
72273;SDS011;60208;48.692;8.948;2023-05-07T13:07:56;5.82;;;1.80;;
72273;SDS011;60208;48.692;8.948;2023-05-07T13:10:25;4.05;;;1.50;;
72273;SDS011;60208;48.692;8.948;2023-05-07T13:15:58;1.80;;;1.60;;
72273;SDS011;60208;48.692;8.948;2023-05-07T13:18:39;2.67;;;1.70;;
72273;SDS011;60208;48.692;8.948;2023-05-07T13:21:16;2.60;;;1.65;;
72273;SDS011;60208;48.692;8.948;2023-05-07T13:27:16;5.95;;;2.47;;
72273;SDS011;60208;48.692;8.948;2023-05-07T13:30:23;4.03;;;2.00;;
72273;SDS011;60208;48.692;8.948;2023-05-07T13:33:11;2.53;;;2.00;;
72273;SDS011;60208;48.692;8.948;2023-05-07T13:35:58;3.08;;;2.25;;
72273;SDS011;60208;48.692;8.948;2023-05-07T13:38:59;4.38;;;2.60;;
72273;SDS011;60208;48.692;8.948;2023-05-07T13:41:34;7.32;;;2.17;;
72273;SDS011;60208;48.692;8.948;2023-05-07T13:44:28;3.70;;;2.30;;
72273;SDS011;60208;48.692;8.948;2023-05-07T13:46:54;4.97;;;2.30;;
72273;SDS011;60208;48.692;8.948;2023-05-07T13:49:43;5.65;;;3.10;;
72273;SDS011;60208;48.692;8.948;2023-05-07T13:52:29;8.27;;;4.95;;
72273;SDS011;60208;48.692;8.948;2023-05-07T13:58:17;14.35;;;7.03;;
72273;SDS011;60208;48.692;8.948;2023-05-07T14:04:14;16.67;;;9.70;;
72273;SDS011;60208;48.692;8.948;2023-05-07T14:10:24;13.82;;;8.00;;
72273;SDS011;60208;48.692;8.948;2023-05-07T14:13:18;10.27;;;5.30;;
72273;SDS011;60208;48.692;8.948;2023-05-07T14:16:27;15.52;;;9.27;;
72273;SDS011;60208;48.692;8.948;2023-05-07T14:22:46;7.90;;;4.72;;
72273;SDS011;60208;48.692;8.948;2023-05-07T14:32:55;9.63;;;5.68;;
72273;SDS011;60208;48.692;8.948;2023-05-07T14:39:42;12.52;;;7.85;;
72273;SDS011;60208;48.692;8.948;2023-05-07T14:46:04;8.47;;;6.53;;
72273;SDS011;60208;48.692;8.948;2023-05-07T14:50:57;8.50;;;5.20;;
72273;SDS011;60208;48.692;8.948;2023-05-07T14:53:23;7.63;;;5.82;;
72273;SDS011;60208;48.692;8.948;2023-05-07T14:55:49;9.55;;;5.97;;
72273;SDS011;60208;48.692;8.948;2023-05-07T14:58:14;7.57;;;5.32;;
72273;SDS011;60208;48.692;8.948;2023-05-07T15:00:40;7.63;;;5.28;;
72273;SDS011;60208;48.692;8.948;2023-05-07T15:03:06;8.40;;;5.28;;
72273;SDS011;60208;48.692;8.948;2023-05-07T15:05:35;8.77;;;4.75;;
72273;SDS011;60208;48.692;8.948;2023-05-07T15:08:01;4.43;;;3.90;;
72273;SDS011;60208;48.692;8.948;2023-05-07T15:10:27;5.25;;;4.30;;
72273;SDS011;60208;48.692;8.948;2023-05-07T15:12:52;7.03;;;4.40;;
72273;SDS011;60208;48.692;8.948;2023-05-07T15:15:20;4.85;;;4.22;;
72273;SDS011;60208;48.692;8.948;2023-05-07T15:17:45;6.63;;;3.97;;
72273;SDS011;60208;48.692;8.948;2023-05-07T15:20:11;3.65;;;3.20;;
72273;SDS011;60208;48.692;8.948;2023-05-07T15:22:36;6.05;;;3.53;;
72273;SDS011;60208;48.692;8.948;2023-05-07T15:25:04;5.55;;;3.55;;
72273;SDS011;60208;48.692;8.948;2023-05-07T15:27:32;5.10;;;3.78;;
72273;SDS011;60208;48.692;8.948;2023-05-07T15:29:58;5.30;;;3.40;;
72273;SDS011;60208;48.692;8.948;2023-05-07T15:32:23;3.70;;;3.30;;
72273;SDS011;60208;48.692;8.948;2023-05-07T15:34:48;6.25;;;4.10;;
72273;SDS011;60208;48.692;8.948;2023-05-07T15:37:16;7.60;;;4.72;;
72273;SDS011;60208;48.692;8.948;2023-05-07T15:39:42;6.63;;;4.28;;
72273;SDS011;60208;48.692;8.948;2023-05-07T15:42:07;6.05;;;3.53;;
72273;SDS011;60208;48.692;8.948;2023-05-07T15:44:35;7.70;;;3.17;;
72273;SDS011;60208;48.692;8.948;2023-05-07T15:47:02;5.28;;;3.28;;
72273;SDS011;60208;48.692;8.948;2023-05-07T15:49:27;3.72;;;2.97;;
72273;SDS011;60208;48.692;8.948;2023-05-07T15:52:02;3.78;;;2.75;;
72273;SDS011;60208;48.692;8.948;2023-05-07T15:54:28;3.70;;;3.00;;
72273;SDS011;60208;48.692;8.948;2023-05-07T15:56:53;4.00;;;2.70;;
72273;SDS011;60208;48.692;8.948;2023-05-07T15:59:21;5.38;;;3.03;;
72273;SDS011;60208;48.692;8.948;2023-05-07T16:01:50;2.35;;;2.13;;
72273;SDS011;60208;48.692;8.948;2023-05-07T16:04:16;2.50;;;2.08;;
72273;SDS011;60208;48.692;8.948;2023-05-07T16:06:41;4.72;;;1.98;;
72273;SDS011;60208;48.692;8.948;2023-05-07T16:09:08;3.22;;;2.05;;
72273;SDS011;60208;48.692;8.948;2023-05-07T16:11:34;3.60;;;2.55;;
72273;SDS011;60208;48.692;8.948;2023-05-07T16:14:00;3.10;;;2.83;;
72273;SDS011;60208;48.692;8.948;2023-05-07T16:16:25;2.85;;;2.17;;
72273;SDS011;60208;48.692;8.948;2023-05-07T16:18:54;4.35;;;2.05;;
72273;SDS011;60208;48.692;8.948;2023-05-07T16:21:20;3.17;;;1.90;;
72273;SDS011;60208;48.692;8.948;2023-05-07T16:23:46;5.47;;;2.15;;
72273;SDS011;60208;48.692;8.948;2023-05-07T16:26:12;4.40;;;2.20;;
72273;SDS011;60208;48.692;8.948;2023-05-07T16:28:38;2.45;;;2.00;;
72273;SDS011;60208;48.692;8.948;2023-05-07T16:31:06;4.25;;;2.47;;
72273;SDS011;60208;48.692;8.948;2023-05-07T16:33:32;5.22;;;2.10;;
72273;SDS011;60208;48.692;8.948;2023-05-07T16:36:00;2.22;;;2.00;;
72273;SDS011;60208;48.692;8.948;2023-05-07T16:38:26;2.70;;;2.00;;
72273;SDS011;60208;48.692;8.948;2023-05-07T16:40:52;3.63;;;2.22;;
72273;SDS011;60208;48.692;8.948;2023-05-07T16:43:21;3.63;;;2.00;;
72273;SDS011;60208;48.692;8.948;2023-05-07T16:45:49;3.63;;;2.08;;
72273;SDS011;60208;48.692;8.948;2023-05-07T16:48:16;2.97;;;2.47;;
72273;SDS011;60208;48.692;8.948;2023-05-07T16:50:44;4.72;;;2.60;;
72273;SDS011;60208;48.692;8.948;2023-05-07T16:53:10;2.85;;;2.08;;
72273;SDS011;60208;48.692;8.948;2023-05-07T16:55:35;3.67;;;1.88;;
72273;SDS011;60208;48.692;8.948;2023-05-07T16:58:03;4.85;;;2.00;;
72273;SDS011;60208;48.692;8.948;2023-05-07T17:00:29;3.13;;;2.10;;
72273;SDS011;60208;48.692;8.948;2023-05-07T17:02:57;3.25;;;2.10;;
72273;SDS011;60208;48.692;8.948;2023-05-07T17:05:23;2.63;;;2.00;;
72273;SDS011;60208;48.692;8.948;2023-05-07T17:07:53;3.83;;;2.10;;
72273;SDS011;60208;48.692;8.948;2023-05-07T17:10:22;3.60;;;2.20;;
72273;SDS011;60208;48.692;8.948;2023-05-07T17:12:59;2.22;;;1.95;;
72273;SDS011;60208;48.692;8.948;2023-05-07T17:15:25;2.83;;;2.13;;
72273;SDS011;60208;48.692;8.948;2023-05-07T17:17:50;2.75;;;2.10;;
72273;SDS011;60208;48.692;8.948;2023-05-07T17:20:16;3.42;;;2.80;;
72273;SDS011;60208;48.692;8.948;2023-05-07T17:22:41;6.20;;;4.00;;
72273;SDS011;60208;48.692;8.948;2023-05-07T17:25:09;5.78;;;3.42;;
72273;SDS011;60208;48.692;8.948;2023-05-07T17:27:41;7.90;;;4.88;;
72273;SDS011;60208;48.692;8.948;2023-05-07T17:30:09;14.13;;;7.47;;
72273;SDS011;60208;48.692;8.948;2023-05-07T17:32:35;10.70;;;7.38;;
72273;SDS011;60208;48.692;8.948;2023-05-07T17:35:00;7.38;;;5.20;;
72273;SDS011;60208;48.692;8.948;2023-05-07T17:37:26;5.65;;;3.70;;
72273;SDS011;60208;48.692;8.948;2023-05-07T17:39:51;3.97;;;2.90;;
72273;SDS011;60208;48.692;8.948;2023-05-07T17:42:17;6.32;;;3.85;;
72273;SDS011;60208;48.692;8.948;2023-05-07T17:44:42;3.60;;;2.97;;
72273;SDS011;60208;48.692;8.948;2023-05-07T17:47:08;7.93;;;3.40;;
72273;SDS011;60208;48.692;8.948;2023-05-07T17:49:33;5.00;;;3.50;;
72273;SDS011;60208;48.692;8.948;2023-05-07T17:52:09;4.80;;;3.33;;
72273;SDS011;60208;48.692;8.948;2023-05-07T17:54:34;3.78;;;3.30;;
72273;SDS011;60208;48.692;8.948;2023-05-07T17:57:00;4.78;;;3.42;;
72273;SDS011;60208;48.692;8.948;2023-05-07T17:59:31;7.10;;;4.30;;
72273;SDS011;60208;48.692;8.948;2023-05-07T18:01:57;5.05;;;3.60;;
72273;SDS011;60208;48.692;8.948;2023-05-07T18:04:22;6.25;;;3.33;;
72273;SDS011;60208;48.692;8.948;2023-05-07T18:06:50;7.75;;;3.53;;
72273;SDS011;60208;48.692;8.948;2023-05-07T18:09:16;4.53;;;3.47;;
72273;SDS011;60208;48.692;8.948;2023-05-07T18:11:41;6.13;;;3.53;;
72273;SDS011;60208;48.692;8.948;2023-05-07T18:14:07;4.65;;;2.90;;
72273;SDS011;60208;48.692;8.948;2023-05-07T18:16:35;3.50;;;3.20;;
72273;SDS011;60208;48.692;8.948;2023-05-07T18:19:03;4.80;;;3.20;;
72273;SDS011;60208;48.692;8.948;2023-05-07T18:21:28;3.20;;;2.85;;
72273;SDS011;60208;48.692;8.948;2023-05-07T18:23:54;4.72;;;2.97;;
72273;SDS011;60208;48.692;8.948;2023-05-07T18:26:20;3.83;;;3.25;;
72273;SDS011;60208;48.692;8.948;2023-05-07T18:28:55;4.25;;;3.50;;
72273;SDS011;60208;48.692;8.948;2023-05-07T18:31:20;5.88;;;4.50;;
72273;SDS011;60208;48.692;8.948;2023-05-07T18:33:46;5.13;;;3.67;;
72273;SDS011;60208;48.692;8.948;2023-05-07T18:36:19;5.38;;;3.72;;
72273;SDS011;60208;48.692;8.948;2023-05-07T18:38:44;6.20;;;4.25;;
72273;SDS011;60208;48.692;8.948;2023-05-07T18:41:09;6.90;;;5.43;;
72273;SDS011;60208;48.692;8.948;2023-05-07T18:43:35;5.85;;;4.65;;
72273;SDS011;60208;48.692;8.948;2023-05-07T18:46:00;5.95;;;4.85;;
72273;SDS011;60208;48.692;8.948;2023-05-07T18:48:25;7.95;;;5.60;;
72273;SDS011;60208;48.692;8.948;2023-05-07T18:50:51;5.30;;;4.80;;